sensor_id;sensor_type;location;lat;lon;timestamp;P1;durP1;ratioP1;P2;durP2;ratioP2
35917;SDS011;22011;59.912;30.300;2023-07-13T00:01:18;4.47;;;2.42;;
35917;SDS011;22011;59.912;30.300;2023-07-13T00:03:46;4.10;;;2.30;;
35917;SDS011;22011;59.912;30.300;2023-07-13T00:06:14;4.85;;;2.55;;
35917;SDS011;22011;59.912;30.300;2023-07-13T00:08:41;4.47;;;2.00;;
35917;SDS011;22011;59.912;30.300;2023-07-13T00:11:09;4.43;;;2.40;;
35917;SDS011;22011;59.912;30.300;2023-07-13T00:13:37;3.97;;;2.35;;
35917;SDS011;22011;59.912;30.300;2023-07-13T00:16:05;3.67;;;2.17;;
35917;SDS011;22011;59.912;30.300;2023-07-13T00:18:34;9.38;;;2.20;;
35917;SDS011;22011;59.912;30.300;2023-07-13T00:21:01;7.30;;;2.55;;
35917;SDS011;22011;59.912;30.300;2023-07-13T00:25:59;5.30;;;2.65;;
35917;SDS011;22011;59.912;30.300;2023-07-13T00:28:27;5.47;;;2.50;;
35917;SDS011;22011;59.912;30.300;2023-07-13T00:30:55;6.72;;;2.47;;
35917;SDS011;22011;59.912;30.300;2023-07-13T00:33:24;5.40;;;2.55;;
35917;SDS011;22011;59.912;30.300;2023-07-13T00:35:53;5.15;;;2.53;;
35917;SDS011;22011;59.912;30.300;2023-07-13T00:38:21;8.43;;;2.53;;
35917;SDS011;22011;59.912;30.300;2023-07-13T00:40:49;5.32;;;2.28;;
35917;SDS011;22011;59.912;30.300;2023-07-13T00:43:18;4.85;;;2.40;;
35917;SDS011;22011;59.912;30.300;2023-07-13T00:48:51;2.95;;;2.15;;
35917;SDS011;22011;59.912;30.300;2023-07-13T00:51:25;6.00;;;2.20;;
35917;SDS011;22011;59.912;30.300;2023-07-13T00:53:58;4.32;;;2.78;;
35917;SDS011;22011;59.912;30.300;2023-07-13T00:56:28;6.65;;;2.80;;
35917;SDS011;22011;59.912;30.300;2023-07-13T00:58:59;4.60;;;2.58;;
35917;SDS011;22011;59.912;30.300;2023-07-13T01:01:29;4.88;;;2.70;;
35917;SDS011;22011;59.912;30.300;2023-07-13T01:03:57;5.32;;;2.47;;
35917;SDS011;22011;59.912;30.300;2023-07-13T01:06:27;4.38;;;2.20;;
35917;SDS011;22011;59.912;30.300;2023-07-13T01:08:58;5.78;;;2.60;;
35917;SDS011;22011;59.912;30.300;2023-07-13T01:11:27;3.90;;;1.92;;
35917;SDS011;22011;59.912;30.300;2023-07-13T01:13:54;4.53;;;2.35;;
35917;SDS011;22011;59.912;30.300;2023-07-13T01:16:24;2.47;;;1.70;;
35917;SDS011;22011;59.912;30.300;2023-07-13T01:18:53;2.58;;;2.05;;
35917;SDS011;22011;59.912;30.300;2023-07-13T01:21:25;7.13;;;2.30;;
35917;SDS011;22011;59.912;30.300;2023-07-13T01:23:54;3.03;;;2.10;;
35917;SDS011;22011;59.912;30.300;2023-07-13T01:26:21;4.07;;;2.38;;
35917;SDS011;22011;59.912;30.300;2023-07-13T01:28:49;4.55;;;2.35;;
35917;SDS011;22011;59.912;30.300;2023-07-13T01:31:17;4.50;;;2.63;;
35917;SDS011;22011;59.912;30.300;2023-07-13T01:33:44;5.55;;;2.10;;
35917;SDS011;22011;59.912;30.300;2023-07-13T01:36:12;3.05;;;1.90;;
35917;SDS011;22011;59.912;30.300;2023-07-13T01:38:41;3.05;;;2.00;;
35917;SDS011;22011;59.912;30.300;2023-07-13T01:41:09;2.75;;;2.03;;
35917;SDS011;22011;59.912;30.300;2023-07-13T01:43:36;4.20;;;2.85;;
35917;SDS011;22011;59.912;30.300;2023-07-13T01:46:06;5.63;;;2.10;;
35917;SDS011;22011;59.912;30.300;2023-07-13T01:48:34;4.18;;;2.08;;
35917;SDS011;22011;59.912;30.300;2023-07-13T01:51:01;9.10;;;2.08;;
35917;SDS011;22011;59.912;30.300;2023-07-13T01:53:29;4.38;;;2.47;;
35917;SDS011;22011;59.912;30.300;2023-07-13T01:55:58;4.30;;;2.30;;
35917;SDS011;22011;59.912;30.300;2023-07-13T01:58:26;4.65;;;2.28;;
35917;SDS011;22011;59.912;30.300;2023-07-13T02:00:53;5.00;;;2.40;;
35917;SDS011;22011;59.912;30.300;2023-07-13T02:03:21;3.15;;;2.15;;
35917;SDS011;22011;59.912;30.300;2023-07-13T02:05:48;2.03;;;1.83;;
35917;SDS011;22011;59.912;30.300;2023-07-13T02:08:17;3.72;;;2.13;;
35917;SDS011;22011;59.912;30.300;2023-07-13T02:10:46;3.40;;;2.40;;
35917;SDS011;22011;59.912;30.300;2023-07-13T02:13:15;3.25;;;1.90;;
35917;SDS011;22011;59.912;30.300;2023-07-13T02:15:43;2.35;;;1.88;;
35917;SDS011;22011;59.912;30.300;2023-07-13T02:18:10;4.03;;;2.10;;
35917;SDS011;22011;59.912;30.300;2023-07-13T02:20:43;7.82;;;2.22;;
35917;SDS011;22011;59.912;30.300;2023-07-13T02:23:11;4.13;;;2.05;;
35917;SDS011;22011;59.912;30.300;2023-07-13T02:25:38;2.08;;;1.88;;
35917;SDS011;22011;59.912;30.300;2023-07-13T02:28:08;3.38;;;1.63;;
35917;SDS011;22011;59.912;30.300;2023-07-13T02:30:37;4.50;;;2.10;;
35917;SDS011;22011;59.912;30.300;2023-07-13T02:33:05;3.15;;;1.90;;
35917;SDS011;22011;59.912;30.300;2023-07-13T02:35:32;4.57;;;2.00;;
35917;SDS011;22011;59.912;30.300;2023-07-13T02:38:00;3.30;;;2.05;;
35917;SDS011;22011;59.912;30.300;2023-07-13T02:40:30;2.70;;;2.15;;
35917;SDS011;22011;59.912;30.300;2023-07-13T02:42:59;7.28;;;2.33;;
35917;SDS011;22011;59.912;30.300;2023-07-13T02:45:26;2.75;;;2.50;;
35917;SDS011;22011;59.912;30.300;2023-07-13T02:47:55;5.25;;;2.08;;
35917;SDS011;22011;59.912;30.300;2023-07-13T02:50:23;2.72;;;2.03;;
35917;SDS011;22011;59.912;30.300;2023-07-13T02:52:51;6.03;;;2.50;;
35917;SDS011;22011;59.912;30.300;2023-07-13T02:55:18;3.15;;;2.10;;
35917;SDS011;22011;59.912;30.300;2023-07-13T02:57:46;4.22;;;2.05;;
35917;SDS011;22011;59.912;30.300;2023-07-13T03:00:14;4.68;;;2.13;;
35917;SDS011;22011;59.912;30.300;2023-07-13T03:02:42;4.47;;;2.05;;
35917;SDS011;22011;59.912;30.300;2023-07-13T03:05:11;2.88;;;2.22;;
35917;SDS011;22011;59.912;30.300;2023-07-13T03:07:41;4.05;;;2.10;;
35917;SDS011;22011;59.912;30.300;2023-07-13T03:10:11;4.55;;;2.00;;
35917;SDS011;22011;59.912;30.300;2023-07-13T03:12:45;3.88;;;2.00;;
35917;SDS011;22011;59.912;30.300;2023-07-13T03:15:26;3.15;;;1.83;;
35917;SDS011;22011;59.912;30.300;2023-07-13T03:17:55;2.58;;;2.00;;
35917;SDS011;22011;59.912;30.300;2023-07-13T03:20:25;3.95;;;1.92;;
35917;SDS011;22011;59.912;30.300;2023-07-13T03:22:52;5.10;;;2.40;;
35917;SDS011;22011;59.912;30.300;2023-07-13T03:25:20;4.50;;;1.92;;
35917;SDS011;22011;59.912;30.300;2023-07-13T03:27:49;4.57;;;2.22;;
35917;SDS011;22011;59.912;30.300;2023-07-13T03:30:17;2.75;;;2.00;;
35917;SDS011;22011;59.912;30.300;2023-07-13T03:32:44;5.88;;;2.20;;
35917;SDS011;22011;59.912;30.300;2023-07-13T03:35:12;4.60;;;2.55;;
35917;SDS011;22011;59.912;30.300;2023-07-13T03:37:41;4.70;;;2.58;;
35917;SDS011;22011;59.912;30.300;2023-07-13T03:40:12;4.60;;;2.45;;
35917;SDS011;22011;59.912;30.300;2023-07-13T03:42:42;3.15;;;2.22;;
35917;SDS011;22011;59.912;30.300;2023-07-13T03:45:11;14.02;;;2.90;;
35917;SDS011;22011;59.912;30.300;2023-07-13T03:47:39;3.53;;;2.38;;
35917;SDS011;22011;59.912;30.300;2023-07-13T03:50:07;2.90;;;2.17;;
35917;SDS011;22011;59.912;30.300;2023-07-13T03:52:35;6.50;;;2.67;;
35917;SDS011;22011;59.912;30.300;2023-07-13T03:55:04;3.20;;;2.00;;
35917;SDS011;22011;59.912;30.300;2023-07-13T03:57:33;2.72;;;1.73;;
35917;SDS011;22011;59.912;30.300;2023-07-13T04:00:03;5.07;;;2.20;;
35917;SDS011;22011;59.912;30.300;2023-07-13T04:02:41;3.28;;;1.98;;
35917;SDS011;22011;59.912;30.300;2023-07-13T04:05:09;3.15;;;1.85;;
35917;SDS011;22011;59.912;30.300;2023-07-13T04:07:37;4.88;;;1.58;;
35917;SDS011;22011;59.912;30.300;2023-07-13T04:10:08;3.63;;;2.03;;
35917;SDS011;22011;59.912;30.300;2023-07-13T04:12:36;2.70;;;1.75;;
35917;SDS011;22011;59.912;30.300;2023-07-13T04:15:04;2.70;;;1.40;;
35917;SDS011;22011;59.912;30.300;2023-07-13T04:17:32;2.20;;;1.70;;
35917;SDS011;22011;59.912;30.300;2023-07-13T04:20:00;4.63;;;2.08;;
35917;SDS011;22011;59.912;30.300;2023-07-13T04:22:27;2.60;;;1.63;;
35917;SDS011;22011;59.912;30.300;2023-07-13T04:24:55;3.97;;;1.92;;
35917;SDS011;22011;59.912;30.300;2023-07-13T04:27:24;5.43;;;1.65;;
35917;SDS011;22011;59.912;30.300;2023-07-13T04:29:51;4.00;;;1.90;;
35917;SDS011;22011;59.912;30.300;2023-07-13T04:32:19;2.30;;;1.73;;
35917;SDS011;22011;59.912;30.300;2023-07-13T04:34:46;3.28;;;2.15;;
35917;SDS011;22011;59.912;30.300;2023-07-13T04:37:20;4.07;;;1.60;;
35917;SDS011;22011;59.912;30.300;2023-07-13T04:39:47;2.88;;;1.83;;
35917;SDS011;22011;59.912;30.300;2023-07-13T04:42:15;4.80;;;2.25;;
35917;SDS011;22011;59.912;30.300;2023-07-13T04:44:48;3.03;;;2.10;;
35917;SDS011;22011;59.912;30.300;2023-07-13T04:47:15;3.20;;;1.70;;
35917;SDS011;22011;59.912;30.300;2023-07-13T04:49:43;2.78;;;1.85;;
35917;SDS011;22011;59.912;30.300;2023-07-13T04:52:11;1.83;;;1.52;;
35917;SDS011;22011;59.912;30.300;2023-07-13T04:54:39;4.80;;;1.98;;
35917;SDS011;22011;59.912;30.300;2023-07-13T04:57:06;2.47;;;1.80;;
35917;SDS011;22011;59.912;30.300;2023-07-13T04:59:34;2.50;;;1.58;;
35917;SDS011;22011;59.912;30.300;2023-07-13T05:02:03;1.58;;;1.20;;
35917;SDS011;22011;59.912;30.300;2023-07-13T05:04:31;2.40;;;1.65;;
35917;SDS011;22011;59.912;30.300;2023-07-13T05:06:59;3.97;;;1.80;;
35917;SDS011;22011;59.912;30.300;2023-07-13T05:09:27;3.97;;;1.50;;
35917;SDS011;22011;59.912;30.300;2023-07-13T05:11:54;2.95;;;1.92;;
35917;SDS011;22011;59.912;30.300;2023-07-13T05:14:22;3.22;;;1.60;;
35917;SDS011;22011;59.912;30.300;2023-07-13T05:16:49;2.17;;;1.35;;
35917;SDS011;22011;59.912;30.300;2023-07-13T05:19:18;3.15;;;1.40;;
35917;SDS011;22011;59.912;30.300;2023-07-13T05:21:46;2.13;;;1.55;;
35917;SDS011;22011;59.912;30.300;2023-07-13T05:24:14;4.60;;;1.38;;
35917;SDS011;22011;59.912;30.300;2023-07-13T05:26:41;2.15;;;1.30;;
35917;SDS011;22011;59.912;30.300;2023-07-13T05:29:09;2.72;;;1.60;;
35917;SDS011;22011;59.912;30.300;2023-07-13T05:31:36;2.28;;;1.48;;
35917;SDS011;22011;59.912;30.300;2023-07-13T05:34:04;1.90;;;1.50;;
35917;SDS011;22011;59.912;30.300;2023-07-13T05:36:33;2.13;;;1.60;;
35917;SDS011;22011;59.912;30.300;2023-07-13T05:39:01;5.32;;;1.50;;
35917;SDS011;22011;59.912;30.300;2023-07-13T05:41:30;5.40;;;3.30;;
35917;SDS011;22011;59.912;30.300;2023-07-13T05:43:57;2.33;;;1.85;;
35917;SDS011;22011;59.912;30.300;2023-07-13T05:46:25;3.30;;;1.60;;
35917;SDS011;22011;59.912;30.300;2023-07-13T05:48:53;3.47;;;1.50;;
35917;SDS011;22011;59.912;30.300;2023-07-13T05:51:21;3.08;;;1.60;;
35917;SDS011;22011;59.912;30.300;2023-07-13T05:53:50;3.72;;;1.60;;
35917;SDS011;22011;59.912;30.300;2023-07-13T05:56:17;10.83;;;2.27;;
35917;SDS011;22011;59.912;30.300;2023-07-13T05:58:45;4.47;;;2.40;;
35917;SDS011;22011;59.912;30.300;2023-07-13T06:03:43;9.65;;;3.20;;
35917;SDS011;22011;59.912;30.300;2023-07-13T06:06:10;9.27;;;3.30;;
35917;SDS011;22011;59.912;30.300;2023-07-13T06:08:38;11.43;;;4.38;;
35917;SDS011;22011;59.912;30.300;2023-07-13T06:11:07;7.40;;;3.47;;
35917;SDS011;22011;59.912;30.300;2023-07-13T06:13:39;5.88;;;3.30;;
35917;SDS011;22011;59.912;30.300;2023-07-13T06:16:07;6.85;;;3.50;;
35917;SDS011;22011;59.912;30.300;2023-07-13T06:18:35;4.75;;;2.88;;
35917;SDS011;22011;59.912;30.300;2023-07-13T06:21:07;5.13;;;2.78;;
35917;SDS011;22011;59.912;30.300;2023-07-13T06:23:35;5.78;;;2.78;;
35917;SDS011;22011;59.912;30.300;2023-07-13T06:26:03;4.03;;;2.90;;
35917;SDS011;22011;59.912;30.300;2023-07-13T06:28:33;8.70;;;3.20;;
35917;SDS011;22011;59.912;30.300;2023-07-13T06:31:01;7.13;;;2.75;;
35917;SDS011;22011;59.912;30.300;2023-07-13T06:33:31;11.15;;;2.80;;
35917;SDS011;22011;59.912;30.300;2023-07-13T06:35:59;6.07;;;2.88;;
35917;SDS011;22011;59.912;30.300;2023-07-13T06:38:27;4.50;;;2.92;;
35917;SDS011;22011;59.912;30.300;2023-07-13T06:40:55;7.07;;;2.38;;
35917;SDS011;22011;59.912;30.300;2023-07-13T06:43:23;7.20;;;2.33;;
35917;SDS011;22011;59.912;30.300;2023-07-13T06:45:54;3.97;;;2.58;;
35917;SDS011;22011;59.912;30.300;2023-07-13T06:48:22;4.15;;;2.15;;
35917;SDS011;22011;59.912;30.300;2023-07-13T06:50:50;5.63;;;2.08;;
35917;SDS011;22011;59.912;30.300;2023-07-13T06:53:19;4.22;;;1.63;;
35917;SDS011;22011;59.912;30.300;2023-07-13T06:55:47;4.85;;;2.30;;
35917;SDS011;22011;59.912;30.300;2023-07-13T06:58:16;4.57;;;2.00;;
35917;SDS011;22011;59.912;30.300;2023-07-13T07:00:44;6.80;;;2.05;;
35917;SDS011;22011;59.912;30.300;2023-07-13T07:03:13;16.90;;;2.75;;
35917;SDS011;22011;59.912;30.300;2023-07-13T07:05:41;6.70;;;2.10;;
35917;SDS011;22011;59.912;30.300;2023-07-13T07:08:08;4.22;;;1.95;;
35917;SDS011;22011;59.912;30.300;2023-07-13T07:10:36;3.25;;;2.10;;
35917;SDS011;22011;59.912;30.300;2023-07-13T07:13:03;4.03;;;1.80;;
35917;SDS011;22011;59.912;30.300;2023-07-13T07:15:31;3.35;;;2.08;;
35917;SDS011;22011;59.912;30.300;2023-07-13T07:17:59;4.97;;;1.88;;
35917;SDS011;22011;59.912;30.300;2023-07-13T07:20:28;6.50;;;1.70;;
35917;SDS011;22011;59.912;30.300;2023-07-13T07:22:56;5.07;;;1.83;;
35917;SDS011;22011;59.912;30.300;2023-07-13T07:25:24;5.45;;;1.88;;
35917;SDS011;22011;59.912;30.300;2023-07-13T07:27:51;4.47;;;2.10;;
35917;SDS011;22011;59.912;30.300;2023-07-13T07:30:19;2.85;;;2.00;;
35917;SDS011;22011;59.912;30.300;2023-07-13T07:32:47;4.18;;;1.90;;
35917;SDS011;22011;59.912;30.300;2023-07-13T07:35:14;4.63;;;1.73;;
35917;SDS011;22011;59.912;30.300;2023-07-13T07:37:43;2.85;;;1.92;;
35917;SDS011;22011;59.912;30.300;2023-07-13T07:40:11;6.87;;;2.03;;
35917;SDS011;22011;59.912;30.300;2023-07-13T07:42:39;8.65;;;2.08;;
35917;SDS011;22011;59.912;30.300;2023-07-13T07:45:06;4.30;;;2.20;;
35917;SDS011;22011;59.912;30.300;2023-07-13T07:47:37;3.15;;;1.90;;
35917;SDS011;22011;59.912;30.300;2023-07-13T07:50:05;2.47;;;1.80;;
35917;SDS011;22011;59.912;30.300;2023-07-13T07:52:33;3.28;;;1.80;;
35917;SDS011;22011;59.912;30.300;2023-07-13T07:55:03;3.95;;;1.90;;
35917;SDS011;22011;59.912;30.300;2023-07-13T07:57:31;5.15;;;2.03;;
35917;SDS011;22011;59.912;30.300;2023-07-13T08:00:00;8.85;;;2.22;;
35917;SDS011;22011;59.912;30.300;2023-07-13T08:02:27;3.72;;;2.22;;
35917;SDS011;22011;59.912;30.300;2023-07-13T08:04:55;2.15;;;1.92;;
35917;SDS011;22011;59.912;30.300;2023-07-13T08:07:22;4.00;;;1.98;;
35917;SDS011;22011;59.912;30.300;2023-07-13T08:09:51;2.17;;;1.83;;
35917;SDS011;22011;59.912;30.300;2023-07-13T08:12:20;4.95;;;2.33;;
35917;SDS011;22011;59.912;30.300;2023-07-13T08:14:49;2.10;;;1.90;;
35917;SDS011;22011;59.912;30.300;2023-07-13T08:17:19;6.22;;;2.15;;
35917;SDS011;22011;59.912;30.300;2023-07-13T08:19:47;2.47;;;1.95;;
35917;SDS011;22011;59.912;30.300;2023-07-13T08:22:14;6.05;;;2.20;;
35917;SDS011;22011;59.912;30.300;2023-07-13T08:24:42;5.55;;;2.10;;
35917;SDS011;22011;59.912;30.300;2023-07-13T08:27:10;5.72;;;2.40;;
35917;SDS011;22011;59.912;30.300;2023-07-13T08:29:40;5.63;;;2.38;;
35917;SDS011;22011;59.912;30.300;2023-07-13T08:32:07;3.83;;;1.80;;
35917;SDS011;22011;59.912;30.300;2023-07-13T08:34:36;5.78;;;1.95;;
35917;SDS011;22011;59.912;30.300;2023-07-13T08:37:04;5.90;;;2.20;;
35917;SDS011;22011;59.912;30.300;2023-07-13T08:39:32;4.47;;;1.90;;
35917;SDS011;22011;59.912;30.300;2023-07-13T08:42:01;3.67;;;2.08;;
35917;SDS011;22011;59.912;30.300;2023-07-13T08:44:35;2.47;;;1.98;;
35917;SDS011;22011;59.912;30.300;2023-07-13T08:47:12;5.07;;;1.88;;
35917;SDS011;22011;59.912;30.300;2023-07-13T08:49:43;2.30;;;1.70;;
35917;SDS011;22011;59.912;30.300;2023-07-13T08:52:13;4.90;;;1.97;;
35917;SDS011;22011;59.912;30.300;2023-07-13T08:54:58;2.88;;;2.03;;
35917;SDS011;22011;59.912;30.300;2023-07-13T08:57:33;5.70;;;1.85;;
35917;SDS011;22011;59.912;30.300;2023-07-13T09:00:01;4.30;;;2.22;;
35917;SDS011;22011;59.912;30.300;2023-07-13T09:02:38;2.20;;;2.00;;
35917;SDS011;22011;59.912;30.300;2023-07-13T09:05:12;3.53;;;1.90;;
35917;SDS011;22011;59.912;30.300;2023-07-13T09:07:47;4.38;;;2.13;;
35917;SDS011;22011;59.912;30.300;2023-07-13T09:10:28;4.93;;;2.17;;
35917;SDS011;22011;59.912;30.300;2023-07-13T09:13:04;3.38;;;1.95;;
35917;SDS011;22011;59.912;30.300;2023-07-13T09:15:43;4.15;;;2.30;;
35917;SDS011;22011;59.912;30.300;2023-07-13T09:18:15;3.88;;;2.50;;
35917;SDS011;22011;59.912;30.300;2023-07-13T09:20:49;3.72;;;2.10;;
35917;SDS011;22011;59.912;30.300;2023-07-13T09:23:21;2.72;;;2.30;;
35917;SDS011;22011;59.912;30.300;2023-07-13T09:25:51;5.68;;;2.10;;
35917;SDS011;22011;59.912;30.300;2023-07-13T09:28:26;6.35;;;2.45;;
35917;SDS011;22011;59.912;30.300;2023-07-13T09:31:01;3.13;;;1.88;;
35917;SDS011;22011;59.912;30.300;2023-07-13T09:33:33;2.28;;;1.95;;
35917;SDS011;22011;59.912;30.300;2023-07-13T09:36:01;2.47;;;2.17;;
35917;SDS011;22011;59.912;30.300;2023-07-13T09:38:41;5.38;;;2.65;;
35917;SDS011;22011;59.912;30.300;2023-07-13T09:41:14;2.42;;;1.92;;
35917;SDS011;22011;59.912;30.300;2023-07-13T09:44:06;2.83;;;2.40;;
35917;SDS011;22011;59.912;30.300;2023-07-13T09:46:37;2.58;;;2.25;;
35917;SDS011;22011;59.912;30.300;2023-07-13T09:49:10;2.88;;;2.15;;
35917;SDS011;22011;59.912;30.300;2023-07-13T09:51:37;2.10;;;1.90;;
35917;SDS011;22011;59.912;30.300;2023-07-13T09:54:08;3.30;;;1.80;;
35917;SDS011;22011;59.912;30.300;2023-07-13T09:56:45;2.05;;;1.85;;
35917;SDS011;22011;59.912;30.300;2023-07-13T09:59:19;5.25;;;2.70;;
35917;SDS011;22011;59.912;30.300;2023-07-13T10:01:48;2.20;;;2.00;;
35917;SDS011;22011;59.912;30.300;2023-07-13T10:04:18;2.42;;;1.88;;
35917;SDS011;22011;59.912;30.300;2023-07-13T10:06:47;1.75;;;1.60;;
35917;SDS011;22011;59.912;30.300;2023-07-13T10:09:15;3.80;;;1.73;;
35917;SDS011;22011;59.912;30.300;2023-07-13T10:11:43;3.20;;;1.80;;
35917;SDS011;22011;59.912;30.300;2023-07-13T10:14:12;3.35;;;1.60;;
35917;SDS011;22011;59.912;30.300;2023-07-13T10:16:43;3.33;;;1.83;;
35917;SDS011;22011;59.912;30.300;2023-07-13T10:19:14;2.88;;;1.55;;
35917;SDS011;22011;59.912;30.300;2023-07-13T10:21:49;3.33;;;1.60;;
35917;SDS011;22011;59.912;30.300;2023-07-13T10:24:21;6.20;;;1.73;;
35917;SDS011;22011;59.912;30.300;2023-07-13T10:26:52;3.55;;;1.88;;
35917;SDS011;22011;59.912;30.300;2023-07-13T10:29:24;2.13;;;1.70;;
35917;SDS011;22011;59.912;30.300;2023-07-13T10:31:54;1.70;;;1.25;;
35917;SDS011;22011;59.912;30.300;2023-07-13T10:34:23;2.03;;;1.70;;
35917;SDS011;22011;59.912;30.300;2023-07-13T10:36:52;1.45;;;1.20;;
35917;SDS011;22011;59.912;30.300;2023-07-13T10:41:50;1.73;;;1.23;;
35917;SDS011;22011;59.912;30.300;2023-07-13T10:44:23;1.20;;;1.10;;
35917;SDS011;22011;59.912;30.300;2023-07-13T10:46:55;1.88;;;1.45;;
35917;SDS011;22011;59.912;30.300;2023-07-13T10:49:26;1.48;;;1.35;;
35917;SDS011;22011;59.912;30.300;2023-07-13T10:51:56;2.90;;;1.25;;
35917;SDS011;22011;59.912;30.300;2023-07-13T10:54:26;2.58;;;1.45;;
35917;SDS011;22011;59.912;30.300;2023-07-13T10:57:08;2.83;;;1.80;;
35917;SDS011;22011;59.912;30.300;2023-07-13T10:59:43;1.95;;;1.25;;
35917;SDS011;22011;59.912;30.300;2023-07-13T11:02:15;1.58;;;1.35;;
35917;SDS011;22011;59.912;30.300;2023-07-13T11:04:50;2.40;;;1.35;;
35917;SDS011;22011;59.912;30.300;2023-07-13T11:07:23;4.63;;;2.10;;
35917;SDS011;22011;59.912;30.300;2023-07-13T11:09:52;9.18;;;1.70;;
35917;SDS011;22011;59.912;30.300;2023-07-13T11:15:26;2.25;;;1.63;;
35917;SDS011;22011;59.912;30.300;2023-07-13T11:18:00;2.45;;;2.00;;
35917;SDS011;22011;59.912;30.300;2023-07-13T11:20:31;1.90;;;1.40;;
35917;SDS011;22011;59.912;30.300;2023-07-13T11:23:16;4.15;;;2.20;;
35917;SDS011;22011;59.912;30.300;2023-07-13T11:25:46;3.03;;;2.00;;
35917;SDS011;22011;59.912;30.300;2023-07-13T11:28:21;6.97;;;1.98;;
35917;SDS011;22011;59.912;30.300;2023-07-13T11:31:10;7.75;;;2.85;;
35917;SDS011;22011;59.912;30.300;2023-07-13T11:33:49;3.60;;;2.70;;
35917;SDS011;22011;59.912;30.300;2023-07-13T11:36:29;8.13;;;2.60;;
35917;SDS011;22011;59.912;30.300;2023-07-13T11:39:05;5.97;;;3.50;;
35917;SDS011;22011;59.912;30.300;2023-07-13T11:41:44;5.03;;;3.58;;
35917;SDS011;22011;59.912;30.300;2023-07-13T11:44:17;7.95;;;3.25;;
35917;SDS011;22011;59.912;30.300;2023-07-13T11:46:46;6.53;;;3.60;;
35917;SDS011;22011;59.912;30.300;2023-07-13T11:49:16;6.00;;;3.08;;
35917;SDS011;22011;59.912;30.300;2023-07-13T11:51:44;5.00;;;3.05;;
35917;SDS011;22011;59.912;30.300;2023-07-13T11:54:19;4.97;;;3.67;;
35917;SDS011;22011;59.912;30.300;2023-07-13T11:56:52;3.88;;;3.00;;
35917;SDS011;22011;59.912;30.300;2023-07-13T11:59:20;4.68;;;2.97;;
35917;SDS011;22011;59.912;30.300;2023-07-13T12:01:49;3.42;;;2.78;;
35917;SDS011;22011;59.912;30.300;2023-07-13T12:04:22;5.45;;;2.88;;
35917;SDS011;22011;59.912;30.300;2023-07-13T12:06:56;5.05;;;3.40;;
35917;SDS011;22011;59.912;30.300;2023-07-13T12:09:27;2.88;;;2.58;;
35917;SDS011;22011;59.912;30.300;2023-07-13T12:11:56;4.65;;;2.88;;
35917;SDS011;22011;59.912;30.300;2023-07-13T12:14:26;4.10;;;3.00;;
35917;SDS011;22011;59.912;30.300;2023-07-13T12:16:54;3.13;;;2.58;;
35917;SDS011;22011;59.912;30.300;2023-07-13T12:19:23;3.22;;;2.70;;
35917;SDS011;22011;59.912;30.300;2023-07-13T12:21:55;4.20;;;2.47;;
35917;SDS011;22011;59.912;30.300;2023-07-13T12:24:24;4.05;;;2.92;;
35917;SDS011;22011;59.912;30.300;2023-07-13T12:26:58;3.83;;;2.30;;
35917;SDS011;22011;59.912;30.300;2023-07-13T12:29:28;5.35;;;2.92;;
35917;SDS011;22011;59.912;30.300;2023-07-13T12:31:56;4.32;;;2.47;;
35917;SDS011;22011;59.912;30.300;2023-07-13T12:34:24;3.53;;;3.00;;
35917;SDS011;22011;59.912;30.300;2023-07-13T12:36:55;3.72;;;2.72;;
35917;SDS011;22011;59.912;30.300;2023-07-13T12:39:25;5.47;;;3.03;;
35917;SDS011;22011;59.912;30.300;2023-07-13T12:42:10;4.95;;;2.70;;
35917;SDS011;22011;59.912;30.300;2023-07-13T12:44:48;4.32;;;3.03;;
35917;SDS011;22011;59.912;30.300;2023-07-13T12:47:16;4.97;;;2.80;;
35917;SDS011;22011;59.912;30.300;2023-07-13T12:49:47;4.70;;;2.55;;
35917;SDS011;22011;59.912;30.300;2023-07-13T12:52:17;6.55;;;2.78;;
35917;SDS011;22011;59.912;30.300;2023-07-13T12:54:55;3.30;;;2.60;;
35917;SDS011;22011;59.912;30.300;2023-07-13T12:57:25;4.05;;;3.10;;
35917;SDS011;22011;59.912;30.300;2023-07-13T12:59:53;6.78;;;3.35;;
35917;SDS011;22011;59.912;30.300;2023-07-13T13:02:25;5.85;;;3.13;;
35917;SDS011;22011;59.912;30.300;2023-07-13T13:04:56;6.47;;;2.97;;
35917;SDS011;22011;59.912;30.300;2023-07-13T13:07:25;4.28;;;2.50;;
35917;SDS011;22011;59.912;30.300;2023-07-13T13:09:54;6.78;;;2.78;;
35917;SDS011;22011;59.912;30.300;2023-07-13T13:12:22;5.50;;;2.63;;
35917;SDS011;22011;59.912;30.300;2023-07-13T13:17:20;2.63;;;2.08;;
35917;SDS011;22011;59.912;30.300;2023-07-13T13:19:52;3.28;;;2.22;;
35917;SDS011;22011;59.912;30.300;2023-07-13T13:22:21;3.30;;;2.28;;
35917;SDS011;22011;59.912;30.300;2023-07-13T13:24:49;2.65;;;1.95;;
35917;SDS011;22011;59.912;30.300;2023-07-13T13:27:18;4.07;;;2.35;;
35917;SDS011;22011;59.912;30.300;2023-07-13T13:29:48;5.38;;;2.58;;
35917;SDS011;22011;59.912;30.300;2023-07-13T13:32:17;10.63;;;3.20;;
35917;SDS011;22011;59.912;30.300;2023-07-13T13:34:45;6.68;;;2.15;;
35917;SDS011;22011;59.912;30.300;2023-07-13T13:37:16;3.25;;;1.95;;
35917;SDS011;22011;59.912;30.300;2023-07-13T13:39:46;8.20;;;2.20;;
35917;SDS011;22011;59.912;30.300;2023-07-13T13:42:15;2.70;;;2.00;;
35917;SDS011;22011;59.912;30.300;2023-07-13T13:44:43;3.83;;;2.10;;
35917;SDS011;22011;59.912;30.300;2023-07-13T13:47:17;4.93;;;3.22;;
35917;SDS011;22011;59.912;30.300;2023-07-13T13:49:53;2.58;;;1.80;;
35917;SDS011;22011;59.912;30.300;2023-07-13T13:52:21;3.70;;;2.10;;
35917;SDS011;22011;59.912;30.300;2023-07-13T13:54:49;1.90;;;1.80;;
35917;SDS011;22011;59.912;30.300;2023-07-13T13:57:16;4.72;;;1.85;;
35917;SDS011;22011;59.912;30.300;2023-07-13T13:59:45;3.80;;;1.90;;
35917;SDS011;22011;59.912;30.300;2023-07-13T14:02:22;4.65;;;2.30;;
35917;SDS011;22011;59.912;30.300;2023-07-13T14:04:53;5.47;;;2.30;;
35917;SDS011;22011;59.912;30.300;2023-07-13T14:07:23;2.70;;;2.17;;
35917;SDS011;22011;59.912;30.300;2023-07-13T14:09:51;2.20;;;1.90;;
35917;SDS011;22011;59.912;30.300;2023-07-13T14:12:19;5.32;;;2.78;;
35917;SDS011;22011;59.912;30.300;2023-07-13T14:14:49;4.90;;;2.20;;
35917;SDS011;22011;59.912;30.300;2023-07-13T14:17:18;3.15;;;2.35;;
35917;SDS011;22011;59.912;30.300;2023-07-13T14:19:48;4.35;;;2.17;;
35917;SDS011;22011;59.912;30.300;2023-07-13T14:22:22;6.03;;;2.50;;
35917;SDS011;22011;59.912;30.300;2023-07-13T14:24:51;3.55;;;2.10;;
35917;SDS011;22011;59.912;30.300;2023-07-13T14:27:20;3.87;;;2.27;;
35917;SDS011;22011;59.912;30.300;2023-07-13T14:29:49;7.13;;;2.55;;
35917;SDS011;22011;59.912;30.300;2023-07-13T14:32:17;3.95;;;2.38;;
35917;SDS011;22011;59.912;30.300;2023-07-13T14:34:44;4.97;;;2.50;;
35917;SDS011;22011;59.912;30.300;2023-07-13T14:37:12;5.75;;;2.08;;
35917;SDS011;22011;59.912;30.300;2023-07-13T14:39:43;3.38;;;2.15;;
35917;SDS011;22011;59.912;30.300;2023-07-13T14:44:39;6.28;;;2.45;;
35917;SDS011;22011;59.912;30.300;2023-07-13T14:47:08;5.18;;;2.13;;
35917;SDS011;22011;59.912;30.300;2023-07-13T14:49:38;3.25;;;2.20;;
35917;SDS011;22011;59.912;30.300;2023-07-13T14:52:10;4.68;;;2.15;;
35917;SDS011;22011;59.912;30.300;2023-07-13T14:54:39;3.53;;;2.15;;
35917;SDS011;22011;59.912;30.300;2023-07-13T14:57:09;3.40;;;2.08;;
35917;SDS011;22011;59.912;30.300;2023-07-13T14:59:38;4.60;;;1.83;;
35917;SDS011;22011;59.912;30.300;2023-07-13T15:02:14;2.28;;;1.80;;
35917;SDS011;22011;59.912;30.300;2023-07-13T15:04:43;1.90;;;1.50;;
35917;SDS011;22011;59.912;30.300;2023-07-13T15:07:11;5.28;;;1.83;;